EXS98UT EGCC-LERS
Flight info
| Callsign | EXS98UT |
|---|---|
| Flight time | 2h 7m |
| Altitude | 35000 |
| Route | LISTO P18 TELBA L151 KIDLI UN859 SOPIL DCT BALAN DCT EVPOK DCT NARAK DCT GAI DCT LOMRA DCT ROCAN DCT PUMAL/N0404F230 N31 BERGA |
| Aircraft | A21N/M-SDE2E3FGHIRWXY/LB1 |
Departure
| Time | 2026-05-07 18:07 |
|---|---|
| Airport | Manchester Airport (EGCC) |
Arrival
| Time | 2026-05-07 20:14 |
|---|---|
| Airport | Reus Airport (LERS) |
| Time | Latitude | Longitude | Altitude | Speed | Heading |
|---|---|---|---|---|---|
| 2026-05-07 17:21 | 53.36641 | -2.28267 | 261 ft | 0 kts | 315° |
| 2026-05-07 17:53 | 53.36634 | -2.28256 | 260 ft | 3 kts | 315° |
| 2026-05-07 17:53 | 53.36619 | -2.28231 | 260 ft | 3 kts | 315° |
| 2026-05-07 17:54 | 53.36604 | -2.28205 | 260 ft | 3 kts | 315° |
| 2026-05-07 17:54 | 53.36590 | -2.28180 | 260 ft | 3 kts | 315° |
| 2026-05-07 17:54 | 53.36578 | -2.28160 | 260 ft | 0 kts | 315° |
| 2026-05-07 17:58 | 53.36578 | -2.28161 | 260 ft | 0 kts | 314° |
| 2026-05-07 17:59 | 53.36570 | -2.28196 | 260 ft | 5 kts | 217° |
| 2026-05-07 17:59 | 53.36535 | -2.28223 | 260 ft | 6 kts | 204° |
| 2026-05-07 17:59 | 53.36499 | -2.28274 | 260 ft | 8 kts | 225° |
| 2026-05-07 17:59 | 53.36457 | -2.28342 | 260 ft | 9 kts | 224° |
| 2026-05-07 18:00 | 53.36402 | -2.28378 | 260 ft | 10 kts | 147° |
| 2026-05-07 18:00 | 53.36348 | -2.28290 | 260 ft | 12 kts | 134° |
| 2026-05-07 18:00 | 53.36288 | -2.28189 | 260 ft | 13 kts | 136° |
| 2026-05-07 18:00 | 53.36222 | -2.28078 | 260 ft | 14 kts | 135° |
| 2026-05-07 18:01 | 53.36149 | -2.27963 | 260 ft | 15 kts | 141° |
| 2026-05-07 18:01 | 53.36070 | -2.27858 | 260 ft | 12 kts | 142° |
| 2026-05-07 18:01 | 53.36002 | -2.27771 | 260 ft | 13 kts | 142° |
| 2026-05-07 18:01 | 53.35915 | -2.27726 | 260 ft | 14 kts | 182° |
| 2026-05-07 18:02 | 53.35728 | -2.27751 | 252 ft | 13 kts | 185° |
| 2026-05-07 18:02 | 53.35641 | -2.27765 | 247 ft | 12 kts | 185° |
| 2026-05-07 18:02 | 53.35582 | -2.27751 | 245 ft | 2 kts | 144° |
| 2026-05-07 18:03 | 53.35564 | -2.27731 | 245 ft | 5 kts | 147° |
| 2026-05-07 18:03 | 53.35538 | -2.27667 | 246 ft | 10 kts | 92° |
| 2026-05-07 18:03 | 53.35571 | -2.27557 | 249 ft | 10 kts | 53° |
| 2026-05-07 18:03 | 53.35563 | -2.27446 | 251 ft | 12 kts | 137° |
| 2026-05-07 18:04 | 53.35495 | -2.27354 | 254 ft | 13 kts | 141° |
| 2026-05-07 18:04 | 53.35421 | -2.27252 | 252 ft | 14 kts | 140° |
| 2026-05-07 18:04 | 53.35342 | -2.27189 | 250 ft | 13 kts | 179° |
| 2026-05-07 18:04 | 53.35256 | -2.27214 | 243 ft | 12 kts | 191° |
| 2026-05-07 18:05 | 53.35184 | -2.27238 | 237 ft | 10 kts | 191° |
| 2026-05-07 18:05 | 53.35113 | -2.27262 | 234 ft | 11 kts | 192° |
| 2026-05-07 18:05 | 53.35043 | -2.27287 | 231 ft | 7 kts | 193° |
| 2026-05-07 18:05 | 53.35000 | -2.27337 | 231 ft | 8 kts | 231° |
| 2026-05-07 18:06 | 53.34938 | -2.27465 | 230 ft | 35 kts | 231° |
| 2026-05-07 18:06 | 53.34623 | -2.28097 | 232 ft | 100 kts | 232° |
| 2026-05-07 18:06 | 53.34072 | -2.29253 | 236 ft | 151 kts | 231° |
| 2026-05-07 18:06 | 53.33361 | -2.30712 | 590 ft | 160 kts | 230° |
| 2026-05-07 18:07 | 53.32678 | -2.32147 | 1240 ft | 157 kts | 231° |
| 2026-05-07 18:07 | 53.31999 | -2.33673 | 1687 ft | 170 kts | 231° |
| 2026-05-07 18:07 | 53.31500 | -2.35578 | 2110 ft | 192 kts | 256° |
| 2026-05-07 18:07 | 53.31701 | -2.37911 | 2540 ft | 217 kts | 284° |
| 2026-05-07 18:08 | 53.32032 | -2.40451 | 2976 ft | 233 kts | 266° |
| 2026-05-07 18:08 | 53.31654 | -2.43017 | 3528 ft | 234 kts | 233° |
| 2026-05-07 18:08 | 53.30407 | -2.44852 | 4050 ft | 241 kts | 203° |
| 2026-05-07 18:08 | 53.28828 | -2.45689 | 4929 ft | 243 kts | 189° |
| 2026-05-07 18:09 | 53.27114 | -2.45621 | 5571 ft | 251 kts | 165° |
| 2026-05-07 18:09 | 53.25551 | -2.44227 | 6336 ft | 259 kts | 149° |
| 2026-05-07 18:09 | 53.24014 | -2.42602 | 7048 ft | 264 kts | 152° |
| 2026-05-07 18:09 | 53.22412 | -2.41059 | 7796 ft | 268 kts | 154° |
| 2026-05-07 18:10 | 53.20770 | -2.39539 | 8574 ft | 271 kts | 154° |
| 2026-05-07 18:10 | 53.19103 | -2.38030 | 9367 ft | 275 kts | 155° |
| 2026-05-07 18:10 | 53.17403 | -2.36514 | 10131 ft | 279 kts | 155° |
| 2026-05-07 18:10 | 53.15685 | -2.35001 | 10536 ft | 296 kts | 155° |
| 2026-05-07 18:11 | 53.13749 | -2.33304 | 10845 ft | 317 kts | 155° |
| 2026-05-07 18:11 | 53.12419 | -2.32141 | 11027 ft | 331 kts | 155° |
| 2026-05-07 18:11 | 53.09589 | -2.29665 | 11372 ft | 356 kts | 155° |
| 2026-05-07 18:11 | 53.07344 | -2.27704 | 11606 ft | 373 kts | 155° |
| 2026-05-07 18:12 | 53.05030 | -2.25688 | 11851 ft | 386 kts | 154° |
| 2026-05-07 18:12 | 53.02614 | -2.23678 | 12326 ft | 389 kts | 159° |
| 2026-05-07 18:12 | 53.00018 | -2.22459 | 12851 ft | 389 kts | 174° |
| 2026-05-07 18:12 | 52.97315 | -2.22425 | 13361 ft | 390 kts | 186° |
| 2026-05-07 18:13 | 52.94596 | -2.22872 | 13844 ft | 394 kts | 187° |
| 2026-05-07 18:13 | 52.91866 | -2.23357 | 14274 ft | 397 kts | 187° |
| 2026-05-07 18:13 | 52.89102 | -2.23823 | 14693 ft | 400 kts | 186° |
| 2026-05-07 18:13 | 52.86326 | -2.24311 | 15129 ft | 402 kts | 189° |
| 2026-05-07 18:14 | 52.83577 | -2.25247 | 15570 ft | 404 kts | 194° |
| 2026-05-07 18:14 | 52.80825 | -2.26320 | 15984 ft | 407 kts | 194° |
| 2026-05-07 18:14 | 52.78057 | -2.27402 | 16352 ft | 410 kts | 194° |
| 2026-05-07 18:14 | 52.75344 | -2.28448 | 16709 ft | 412 kts | 194° |
| 2026-05-07 18:15 | 52.72503 | -2.29536 | 17061 ft | 414 kts | 194° |
| 2026-05-07 18:15 | 52.69647 | -2.30348 | 17391 ft | 418 kts | 185° |
| 2026-05-07 18:15 | 52.67713 | -2.30355 | 17621 ft | 421 kts | 177° |
| 2026-05-07 18:15 | 52.64534 | -2.29239 | 17980 ft | 427 kts | 162° |
| 2026-05-07 18:16 | 52.61961 | -2.27142 | 18299 ft | 432 kts | 149° |
| 2026-05-07 18:16 | 52.59455 | -2.24396 | 18604 ft | 434 kts | 147° |
| 2026-05-07 18:16 | 52.57799 | -2.22533 | 18808 ft | 436 kts | 147° |
| 2026-05-07 18:16 | 52.54542 | -2.18911 | 19205 ft | 438 kts | 148° |
| 2026-05-07 18:17 | 52.51998 | -2.16111 | 19504 ft | 441 kts | 148° |
| 2026-05-07 18:17 | 52.49779 | -2.13676 | 19772 ft | 442 kts | 148° |
| 2026-05-07 18:17 | 52.47178 | -2.10837 | 20092 ft | 445 kts | 148° |
| 2026-05-07 18:17 | 52.44624 | -2.08063 | 20386 ft | 447 kts | 148° |
| 2026-05-07 18:18 | 52.42027 | -2.05249 | 20692 ft | 449 kts | 148° |
| 2026-05-07 18:18 | 52.39414 | -2.02420 | 21005 ft | 451 kts | 148° |
| 2026-05-07 18:18 | 52.36788 | -1.99579 | 21354 ft | 453 kts | 148° |
| 2026-05-07 18:18 | 52.34237 | -1.96824 | 21694 ft | 455 kts | 149° |
| 2026-05-07 18:19 | 52.32446 | -1.94895 | 21924 ft | 457 kts | 149° |
| 2026-05-07 18:19 | 52.29782 | -1.92029 | 22269 ft | 459 kts | 149° |
| 2026-05-07 18:19 | 52.27152 | -1.89200 | 22595 ft | 462 kts | 149° |
| 2026-05-07 18:19 | 52.24466 | -1.86316 | 22940 ft | 464 kts | 149° |
| 2026-05-07 18:20 | 52.21770 | -1.83420 | 23296 ft | 466 kts | 149° |
| 2026-05-07 18:20 | 52.19055 | -1.80513 | 23622 ft | 468 kts | 149° |
| 2026-05-07 18:20 | 52.16328 | -1.77600 | 23933 ft | 470 kts | 149° |
| 2026-05-07 18:20 | 52.13584 | -1.74670 | 24341 ft | 469 kts | 149° |
| 2026-05-07 18:21 | 52.10863 | -1.71766 | 24744 ft | 468 kts | 149° |
| 2026-05-07 18:21 | 52.08136 | -1.68859 | 25154 ft | 467 kts | 149° |
| 2026-05-07 18:21 | 52.05936 | -1.66517 | 25486 ft | 467 kts | 149° |
| 2026-05-07 18:21 | 52.03292 | -1.63699 | 25880 ft | 466 kts | 149° |
| 2026-05-07 18:22 | 52.00593 | -1.60826 | 26295 ft | 465 kts | 149° |
| 2026-05-07 18:22 | 51.98792 | -1.58922 | 26571 ft | 464 kts | 149° |
| 2026-05-07 18:22 | 51.95174 | -1.55109 | 27107 ft | 463 kts | 149° |
| 2026-05-07 18:22 | 51.92991 | -1.52808 | 27438 ft | 463 kts | 149° |
| 2026-05-07 18:23 | 51.90631 | -1.50325 | 27790 ft | 462 kts | 149° |
| 2026-05-07 18:23 | 51.87931 | -1.47487 | 28193 ft | 461 kts | 149° |
| 2026-05-07 18:23 | 51.86049 | -1.45506 | 28465 ft | 461 kts | 149° |
| 2026-05-07 18:23 | 51.83680 | -1.43017 | 28766 ft | 461 kts | 150° |
| 2026-05-07 18:24 | 51.80981 | -1.40189 | 29137 ft | 461 kts | 150° |
| 2026-05-07 18:24 | 51.78635 | -1.37759 | 29491 ft | 459 kts | 152° |
| 2026-05-07 18:24 | 51.76334 | -1.35827 | 29850 ft | 454 kts | 160° |
| 2026-05-07 18:24 | 51.74388 | -1.34672 | 30114 ft | 451 kts | 165° |
| 2026-05-07 18:25 | 51.71400 | -1.33151 | 30423 ft | 450 kts | 166° |
| 2026-05-07 18:25 | 51.68405 | -1.31672 | 30745 ft | 450 kts | 166° |
| 2026-05-07 18:25 | 51.65417 | -1.30186 | 31065 ft | 449 kts | 166° |
| 2026-05-07 18:25 | 51.62535 | -1.28740 | 31367 ft | 448 kts | 166° |
| 2026-05-07 18:26 | 51.59558 | -1.27238 | 31669 ft | 448 kts | 165° |
| 2026-05-07 18:26 | 51.57350 | -1.26121 | 31885 ft | 447 kts | 165° |
| 2026-05-07 18:26 | 51.54517 | -1.24687 | 32175 ft | 446 kts | 165° |
| 2026-05-07 18:26 | 51.51845 | -1.23340 | 32476 ft | 445 kts | 166° |
| 2026-05-07 18:27 | 51.48911 | -1.21754 | 32764 ft | 446 kts | 161° |
| 2026-05-07 18:27 | 51.47772 | -1.20983 | 32868 ft | 446 kts | 159° |
| 2026-05-07 18:27 | 51.45167 | -1.19084 | 33112 ft | 447 kts | 158° |
| 2026-05-07 18:27 | 51.43038 | -1.17503 | 33304 ft | 446 kts | 158° |
| 2026-05-07 18:28 | 51.40534 | -1.15646 | 33525 ft | 446 kts | 158° |
| 2026-05-07 18:28 | 51.37903 | -1.13702 | 33742 ft | 446 kts | 158° |
| 2026-05-07 18:28 | 51.35087 | -1.11630 | 33979 ft | 445 kts | 159° |
| 2026-05-07 18:28 | 51.32278 | -1.09572 | 34171 ft | 444 kts | 159° |
| 2026-05-07 18:29 | 51.29477 | -1.07521 | 34364 ft | 443 kts | 158° |
| 2026-05-07 18:29 | 51.26672 | -1.05467 | 34533 ft | 443 kts | 158° |
| 2026-05-07 18:29 | 51.23877 | -1.03427 | 34691 ft | 443 kts | 158° |
| 2026-05-07 18:30 | 51.19354 | -1.00133 | 34915 ft | 443 kts | 158° |
| 2026-05-07 18:30 | 51.16659 | -0.98170 | 35052 ft | 443 kts | 158° |
| 2026-05-07 18:30 | 51.14497 | -0.96599 | 35099 ft | 445 kts | 158° |
| 2026-05-07 18:31 | 51.08853 | -0.92503 | 35073 ft | 446 kts | 159° |
| 2026-05-07 18:31 | 51.03658 | -0.88744 | 35057 ft | 447 kts | 159° |
| 2026-05-07 18:32 | 50.97999 | -0.84658 | 35056 ft | 446 kts | 159° |
| 2026-05-07 18:32 | 50.92331 | -0.80582 | 35054 ft | 447 kts | 159° |
| 2026-05-07 18:33 | 50.86756 | -0.76572 | 35050 ft | 447 kts | 158° |
| 2026-05-07 18:33 | 50.81755 | -0.71923 | 35063 ft | 449 kts | 150° |
| 2026-05-07 18:34 | 50.76551 | -0.66576 | 35049 ft | 449 kts | 150° |
| 2026-05-07 18:34 | 50.71390 | -0.61315 | 35052 ft | 449 kts | 150° |
| 2026-05-07 18:35 | 50.66129 | -0.55985 | 35061 ft | 449 kts | 150° |
| 2026-05-07 18:35 | 50.61081 | -0.50886 | 35051 ft | 447 kts | 150° |
| 2026-05-07 18:36 | 50.55835 | -0.45600 | 35057 ft | 447 kts | 150° |
| 2026-05-07 18:36 | 50.50685 | -0.40428 | 35054 ft | 447 kts | 150° |
| 2026-05-07 18:37 | 50.45435 | -0.35167 | 35051 ft | 447 kts | 150° |
| 2026-05-07 18:37 | 50.40182 | -0.29918 | 35048 ft | 447 kts | 150° |
| 2026-05-07 18:38 | 50.34976 | -0.24729 | 35052 ft | 447 kts | 150° |
| 2026-05-07 18:38 | 50.29723 | -0.19509 | 35050 ft | 447 kts | 150° |
| 2026-05-07 18:39 | 50.24476 | -0.14306 | 35050 ft | 447 kts | 150° |
| 2026-05-07 18:39 | 50.19230 | -0.09117 | 35041 ft | 447 kts | 150° |
| 2026-05-07 18:40 | 50.13992 | -0.03953 | 35042 ft | 445 kts | 150° |
| 2026-05-07 18:40 | 50.08548 | 0.00545 | 35040 ft | 442 kts | 164° |
| 2026-05-07 18:41 | 50.02656 | 0.02976 | 35042 ft | 440 kts | 169° |
| 2026-05-07 18:41 | 49.96706 | 0.05253 | 35031 ft | 440 kts | 168° |
| 2026-05-07 18:42 | 49.90770 | 0.07577 | 35038 ft | 440 kts | 168° |
| 2026-05-07 18:42 | 49.84833 | 0.09901 | 35036 ft | 439 kts | 168° |
| 2026-05-07 18:43 | 49.78904 | 0.12219 | 35030 ft | 439 kts | 168° |
| 2026-05-07 18:43 | 49.72974 | 0.14529 | 35023 ft | 439 kts | 168° |
| 2026-05-07 18:44 | 49.67040 | 0.16840 | 35028 ft | 439 kts | 168° |
| 2026-05-07 18:44 | 49.61130 | 0.19228 | 35023 ft | 440 kts | 168° |
| 2026-05-07 18:45 | 49.55214 | 0.21620 | 35023 ft | 439 kts | 168° |
| 2026-05-07 18:45 | 49.49335 | 0.23984 | 35018 ft | 439 kts | 168° |
| 2026-05-07 18:46 | 49.43418 | 0.26350 | 35022 ft | 439 kts | 168° |
| 2026-05-07 18:46 | 49.37504 | 0.28709 | 35024 ft | 439 kts | 168° |
| 2026-05-07 18:47 | 49.31591 | 0.31066 | 35020 ft | 439 kts | 168° |
| 2026-05-07 18:47 | 49.25687 | 0.33519 | 35022 ft | 439 kts | 167° |
| 2026-05-07 18:48 | 49.19789 | 0.36028 | 35021 ft | 439 kts | 167° |
| 2026-05-07 18:48 | 49.13923 | 0.38497 | 35015 ft | 439 kts | 167° |
| 2026-05-07 18:49 | 49.08021 | 0.40971 | 35013 ft | 439 kts | 167° |
| 2026-05-07 18:49 | 49.02119 | 0.43440 | 35012 ft | 439 kts | 167° |
| 2026-05-07 18:50 | 48.96219 | 0.45903 | 35012 ft | 441 kts | 167° |
| 2026-05-07 18:50 | 48.90301 | 0.48365 | 35011 ft | 441 kts | 167° |
| 2026-05-07 18:51 | 48.84388 | 0.50820 | 35016 ft | 441 kts | 167° |
| 2026-05-07 18:51 | 48.78509 | 0.53257 | 35017 ft | 440 kts | 168° |
| 2026-05-07 18:52 | 48.72575 | 0.55595 | 35014 ft | 440 kts | 168° |
| 2026-05-07 18:52 | 48.66631 | 0.57906 | 35017 ft | 440 kts | 168° |
| 2026-05-07 18:53 | 48.60694 | 0.60228 | 35009 ft | 440 kts | 168° |
| 2026-05-07 18:53 | 48.54793 | 0.62527 | 35010 ft | 440 kts | 168° |
| 2026-05-07 18:54 | 48.48868 | 0.64871 | 35010 ft | 441 kts | 168° |
| 2026-05-07 18:54 | 48.42958 | 0.67293 | 35004 ft | 440 kts | 168° |
| 2026-05-07 18:55 | 48.37045 | 0.69699 | 35008 ft | 441 kts | 168° |
| 2026-05-07 18:55 | 48.31128 | 0.72095 | 35006 ft | 440 kts | 168° |
| 2026-05-07 18:56 | 48.25206 | 0.74485 | 35005 ft | 440 kts | 168° |
| 2026-05-07 18:56 | 48.19292 | 0.76827 | 34998 ft | 439 kts | 169° |
| 2026-05-07 18:57 | 48.13378 | 0.79145 | 34999 ft | 439 kts | 169° |
| 2026-05-07 18:57 | 48.07501 | 0.81448 | 34998 ft | 439 kts | 169° |
| 2026-05-07 18:58 | 48.01586 | 0.83762 | 35000 ft | 439 kts | 169° |
| 2026-05-07 18:58 | 47.95665 | 0.86076 | 34993 ft | 440 kts | 169° |
| 2026-05-07 18:59 | 47.89735 | 0.88389 | 34996 ft | 440 kts | 169° |
| 2026-05-07 18:59 | 47.83809 | 0.90689 | 34994 ft | 440 kts | 169° |
| 2026-05-07 19:00 | 47.77888 | 0.92981 | 34987 ft | 440 kts | 169° |
| 2026-05-07 19:00 | 47.71973 | 0.95272 | 34994 ft | 440 kts | 169° |
| 2026-05-07 19:01 | 47.66056 | 0.97555 | 34993 ft | 439 kts | 169° |
| 2026-05-07 19:01 | 47.60137 | 0.99831 | 34991 ft | 439 kts | 169° |
| 2026-05-07 19:02 | 47.54261 | 1.02086 | 34990 ft | 438 kts | 169° |
| 2026-05-07 19:02 | 47.48350 | 1.04354 | 34991 ft | 438 kts | 169° |
| 2026-05-07 19:03 | 47.42407 | 1.06326 | 34988 ft | 435 kts | 178° |
| 2026-05-07 19:03 | 47.36402 | 1.06384 | 34985 ft | 430 kts | 185° |
| 2026-05-07 19:04 | 47.30409 | 1.06178 | 34986 ft | 430 kts | 185° |
| 2026-05-07 19:04 | 47.25428 | 1.06047 | 34988 ft | 430 kts | 184° |
| 2026-05-07 19:05 | 47.19436 | 1.05905 | 34989 ft | 430 kts | 184° |
| 2026-05-07 19:05 | 47.13456 | 1.05764 | 34988 ft | 429 kts | 184° |
| 2026-05-07 19:06 | 47.07482 | 1.05625 | 34986 ft | 429 kts | 184° |
| 2026-05-07 19:06 | 46.98517 | 1.05358 | 34982 ft | 429 kts | 185° |
| 2026-05-07 19:07 | 46.92577 | 1.05087 | 34988 ft | 429 kts | 185° |
| 2026-05-07 19:07 | 46.86606 | 1.04826 | 34979 ft | 430 kts | 185° |
| 2026-05-07 19:08 | 46.80627 | 1.04573 | 34974 ft | 430 kts | 185° |
| 2026-05-07 19:08 | 46.74643 | 1.04318 | 34982 ft | 429 kts | 185° |
| 2026-05-07 19:09 | 46.68656 | 1.04065 | 34978 ft | 430 kts | 185° |
| 2026-05-07 19:09 | 46.62677 | 1.03812 | 34977 ft | 430 kts | 185° |
| 2026-05-07 19:10 | 46.56695 | 1.03558 | 34978 ft | 429 kts | 185° |
| 2026-05-07 19:10 | 46.50721 | 1.03674 | 34971 ft | 434 kts | 175° |
| 2026-05-07 19:11 | 46.44844 | 1.05534 | 34972 ft | 436 kts | 170° |
| 2026-05-07 19:11 | 46.38930 | 1.07575 | 34969 ft | 435 kts | 171° |
| 2026-05-07 19:12 | 46.33012 | 1.09556 | 34965 ft | 435 kts | 171° |
| 2026-05-07 19:12 | 46.27114 | 1.11517 | 34968 ft | 435 kts | 171° |
| 2026-05-07 19:13 | 46.21221 | 1.13475 | 34968 ft | 435 kts | 171° |
| 2026-05-07 19:13 | 46.15318 | 1.15433 | 34965 ft | 435 kts | 171° |
| 2026-05-07 19:14 | 46.09462 | 1.17369 | 34963 ft | 435 kts | 171° |
| 2026-05-07 19:14 | 46.03562 | 1.19315 | 34952 ft | 434 kts | 171° |
| 2026-05-07 19:15 | 45.97666 | 1.21256 | 34963 ft | 434 kts | 171° |
| 2026-05-07 19:15 | 45.91772 | 1.23194 | 34961 ft | 434 kts | 171° |
| 2026-05-07 19:16 | 45.85880 | 1.25123 | 34966 ft | 434 kts | 171° |
| 2026-05-07 19:16 | 45.80020 | 1.27040 | 34965 ft | 434 kts | 171° |
| 2026-05-07 19:17 | 45.74126 | 1.28963 | 34962 ft | 434 kts | 171° |
| 2026-05-07 19:17 | 45.68239 | 1.30876 | 34968 ft | 434 kts | 171° |
| 2026-05-07 19:18 | 45.62340 | 1.32793 | 34970 ft | 434 kts | 171° |
| 2026-05-07 19:18 | 45.56476 | 1.34696 | 34961 ft | 434 kts | 171° |
| 2026-05-07 19:19 | 45.50574 | 1.36604 | 34969 ft | 435 kts | 171° |
| 2026-05-07 19:19 | 45.44673 | 1.38507 | 34971 ft | 435 kts | 171° |
| 2026-05-07 19:20 | 45.38764 | 1.40411 | 34971 ft | 435 kts | 171° |
| 2026-05-07 19:20 | 45.32854 | 1.42312 | 34967 ft | 436 kts | 170° |
| 2026-05-07 19:21 | 45.26948 | 1.44209 | 34966 ft | 435 kts | 170° |
| 2026-05-07 19:21 | 45.21042 | 1.46101 | 34967 ft | 435 kts | 171° |
| 2026-05-07 19:22 | 45.15127 | 1.47988 | 34966 ft | 436 kts | 170° |
| 2026-05-07 19:22 | 45.09200 | 1.49876 | 34963 ft | 436 kts | 170° |
| 2026-05-07 19:23 | 45.03280 | 1.51761 | 34965 ft | 436 kts | 170° |
| 2026-05-07 19:23 | 44.97392 | 1.53628 | 34962 ft | 437 kts | 170° |
| 2026-05-07 19:24 | 44.91454 | 1.55510 | 34966 ft | 437 kts | 170° |
| 2026-05-07 19:24 | 44.85518 | 1.57385 | 34967 ft | 437 kts | 170° |
| 2026-05-07 19:25 | 44.79604 | 1.59252 | 34969 ft | 438 kts | 170° |
| 2026-05-07 19:25 | 44.73633 | 1.61130 | 34962 ft | 437 kts | 170° |
| 2026-05-07 19:26 | 44.67696 | 1.62994 | 34965 ft | 437 kts | 170° |
| 2026-05-07 19:26 | 44.61757 | 1.64857 | 34958 ft | 437 kts | 170° |
| 2026-05-07 19:27 | 44.55858 | 1.66703 | 34955 ft | 436 kts | 170° |
| 2026-05-07 19:27 | 44.49928 | 1.68554 | 34958 ft | 436 kts | 170° |
| 2026-05-07 19:28 | 44.43990 | 1.70400 | 34967 ft | 437 kts | 170° |
| 2026-05-07 19:28 | 44.38062 | 1.72243 | 34963 ft | 436 kts | 170° |
| 2026-05-07 19:29 | 44.32141 | 1.74078 | 34962 ft | 436 kts | 170° |
| 2026-05-07 19:29 | 44.26230 | 1.75632 | 34958 ft | 435 kts | 174° |
| 2026-05-07 19:30 | 44.20243 | 1.76951 | 34952 ft | 434 kts | 174° |
| 2026-05-07 19:30 | 44.14280 | 1.78264 | 34955 ft | 434 kts | 174° |
| 2026-05-07 19:31 | 44.08311 | 1.79582 | 34956 ft | 434 kts | 174° |
| 2026-05-07 19:31 | 44.02381 | 1.80886 | 34956 ft | 434 kts | 174° |
| 2026-05-07 19:32 | 43.96419 | 1.82191 | 34951 ft | 432 kts | 175° |
| 2026-05-07 19:32 | 43.90444 | 1.82918 | 34953 ft | 430 kts | 179° |
| 2026-05-07 19:33 | 43.84472 | 1.83486 | 34959 ft | 430 kts | 179° |
| 2026-05-07 19:33 | 43.78500 | 1.84061 | 34956 ft | 430 kts | 179° |
| 2026-05-07 19:34 | 43.72528 | 1.84640 | 34957 ft | 430 kts | 179° |
| 2026-05-07 19:34 | 43.66557 | 1.85218 | 34958 ft | 430 kts | 179° |
| 2026-05-07 19:35 | 43.60587 | 1.85793 | 34953 ft | 430 kts | 179° |
| 2026-05-07 19:35 | 43.54618 | 1.86367 | 34953 ft | 430 kts | 179° |
| 2026-05-07 19:36 | 43.48680 | 1.86937 | 34950 ft | 430 kts | 179° |
| 2026-05-07 19:36 | 43.42683 | 1.87511 | 34958 ft | 429 kts | 179° |
| 2026-05-07 19:37 | 43.36742 | 1.88082 | 34950 ft | 425 kts | 179° |
| 2026-05-07 19:37 | 43.30878 | 1.88646 | 34947 ft | 419 kts | 179° |
| 2026-05-07 19:38 | 43.25110 | 1.89197 | 34951 ft | 422 kts | 179° |
| 2026-05-07 19:38 | 43.19198 | 1.89759 | 34950 ft | 425 kts | 180° |
| 2026-05-07 19:39 | 43.13321 | 1.90320 | 34952 ft | 422 kts | 180° |
| 2026-05-07 19:39 | 43.07461 | 1.90877 | 34962 ft | 422 kts | 180° |
| 2026-05-07 19:40 | 43.01649 | 1.91432 | 34958 ft | 413 kts | 181° |
| 2026-05-07 19:40 | 42.95984 | 1.91970 | 34960 ft | 403 kts | 181° |
| 2026-05-07 19:41 | 42.90409 | 1.92496 | 34968 ft | 404 kts | 181° |
| 2026-05-07 19:41 | 42.84745 | 1.93026 | 34975 ft | 410 kts | 181° |
| 2026-05-07 19:42 | 42.81965 | 1.93291 | 34638 ft | 402 kts | 181° |
| 2026-05-07 19:42 | 42.79174 | 1.93555 | 33916 ft | 402 kts | 181° |
| 2026-05-07 19:42 | 42.76380 | 1.93822 | 33144 ft | 401 kts | 181° |
| 2026-05-07 19:42 | 42.73606 | 1.94084 | 32487 ft | 400 kts | 181° |
| 2026-05-07 19:43 | 42.70834 | 1.94340 | 31833 ft | 399 kts | 181° |
| 2026-05-07 19:43 | 42.68057 | 1.94607 | 31202 ft | 398 kts | 180° |
| 2026-05-07 19:43 | 42.65303 | 1.95062 | 30573 ft | 400 kts | 177° |
| 2026-05-07 19:43 | 42.62549 | 1.95612 | 29872 ft | 401 kts | 176° |
| 2026-05-07 19:44 | 42.59786 | 1.96175 | 29078 ft | 402 kts | 176° |
| 2026-05-07 19:44 | 42.57016 | 1.96741 | 28326 ft | 403 kts | 176° |
| 2026-05-07 19:44 | 42.54245 | 1.97307 | 27600 ft | 403 kts | 175° |
| 2026-05-07 19:44 | 42.51467 | 1.97869 | 26857 ft | 405 kts | 175° |
| 2026-05-07 19:45 | 42.48696 | 1.98424 | 26118 ft | 410 kts | 175° |
| 2026-05-07 19:45 | 42.45850 | 1.98995 | 25322 ft | 417 kts | 174° |
| 2026-05-07 19:45 | 42.42959 | 1.99578 | 24572 ft | 424 kts | 174° |
| 2026-05-07 19:45 | 42.40020 | 2.00174 | 23878 ft | 430 kts | 174° |
| 2026-05-07 19:46 | 42.37038 | 2.00763 | 23177 ft | 434 kts | 175° |
| 2026-05-07 19:46 | 42.34042 | 2.01178 | 22516 ft | 432 kts | 177° |
| 2026-05-07 19:46 | 42.31000 | 2.01546 | 22091 ft | 448 kts | 177° |
| 2026-05-07 19:46 | 42.27871 | 2.01916 | 21757 ft | 452 kts | 177° |
| 2026-05-07 19:47 | 42.24743 | 2.02286 | 21378 ft | 448 kts | 177° |
| 2026-05-07 19:47 | 42.21659 | 2.02445 | 20828 ft | 439 kts | 184° |
| 2026-05-07 19:47 | 42.18666 | 2.01877 | 20239 ft | 431 kts | 195° |
| 2026-05-07 19:47 | 42.15858 | 2.00562 | 19704 ft | 431 kts | 206° |
| 2026-05-07 19:48 | 42.13307 | 1.98433 | 19191 ft | 428 kts | 218° |
| 2026-05-07 19:48 | 42.11108 | 1.95778 | 18677 ft | 422 kts | 224° |
| 2026-05-07 19:48 | 42.09009 | 1.93031 | 18072 ft | 419 kts | 225° |
| 2026-05-07 19:48 | 42.06911 | 1.90306 | 17396 ft | 417 kts | 224° |
| 2026-05-07 19:49 | 42.04813 | 1.87628 | 16830 ft | 414 kts | 224° |
| 2026-05-07 19:49 | 42.02724 | 1.84985 | 16298 ft | 409 kts | 223° |
| 2026-05-07 19:49 | 42.00661 | 1.82384 | 15810 ft | 404 kts | 223° |
| 2026-05-07 19:49 | 41.98622 | 1.79817 | 15319 ft | 400 kts | 223° |
| 2026-05-07 19:50 | 41.96589 | 1.77285 | 14879 ft | 395 kts | 222° |
| 2026-05-07 19:50 | 41.94455 | 1.75046 | 14497 ft | 395 kts | 216° |
| 2026-05-07 19:50 | 41.92213 | 1.72903 | 14126 ft | 394 kts | 216° |
| 2026-05-07 19:50 | 41.89983 | 1.70773 | 13735 ft | 393 kts | 216° |
| 2026-05-07 19:51 | 41.87766 | 1.68647 | 13247 ft | 390 kts | 216° |
| 2026-05-07 19:51 | 41.85567 | 1.66538 | 12701 ft | 387 kts | 216° |
| 2026-05-07 19:51 | 41.83382 | 1.64453 | 12268 ft | 384 kts | 216° |
| 2026-05-07 19:51 | 41.81221 | 1.62391 | 11945 ft | 376 kts | 215° |
| 2026-05-07 19:52 | 41.79126 | 1.60398 | 11694 ft | 362 kts | 215° |
| 2026-05-07 19:52 | 41.77781 | 1.59119 | 11573 ft | 353 kts | 215° |
| 2026-05-07 19:52 | 41.75814 | 1.57255 | 11388 ft | 339 kts | 215° |
| 2026-05-07 19:52 | 41.73892 | 1.55525 | 11225 ft | 326 kts | 208° |
| 2026-05-07 19:53 | 41.71818 | 1.54470 | 11070 ft | 313 kts | 193° |
| 2026-05-07 19:53 | 41.69723 | 1.53920 | 10941 ft | 301 kts | 189° |
| 2026-05-07 19:53 | 41.67695 | 1.53442 | 10771 ft | 291 kts | 189° |
| 2026-05-07 19:53 | 41.65730 | 1.52969 | 10598 ft | 284 kts | 189° |
| 2026-05-07 19:54 | 41.63812 | 1.52496 | 10439 ft | 277 kts | 189° |
| 2026-05-07 19:54 | 41.61941 | 1.52029 | 10297 ft | 269 kts | 189° |
| 2026-05-07 19:54 | 41.60114 | 1.51570 | 10170 ft | 267 kts | 189° |
| 2026-05-07 19:54 | 41.58288 | 1.51108 | 10042 ft | 267 kts | 189° |
| 2026-05-07 19:55 | 41.56471 | 1.50588 | 9922 ft | 267 kts | 196° |
| 2026-05-07 19:55 | 41.54867 | 1.49368 | 9779 ft | 270 kts | 224° |
| 2026-05-07 19:55 | 41.53860 | 1.47266 | 9647 ft | 272 kts | 249° |
| 2026-05-07 19:55 | 41.53315 | 1.44850 | 9502 ft | 270 kts | 255° |
| 2026-05-07 19:56 | 41.52831 | 1.42433 | 9360 ft | 270 kts | 254° |
| 2026-05-07 19:56 | 41.52331 | 1.40023 | 9226 ft | 268 kts | 253° |
| 2026-05-07 19:56 | 41.51817 | 1.37632 | 9104 ft | 268 kts | 253° |
| 2026-05-07 19:56 | 41.51291 | 1.35241 | 8975 ft | 268 kts | 253° |
| 2026-05-07 19:57 | 41.50761 | 1.32855 | 8852 ft | 269 kts | 253° |
| 2026-05-07 19:57 | 41.50230 | 1.30481 | 8724 ft | 268 kts | 252° |
| 2026-05-07 19:57 | 41.49694 | 1.28095 | 8596 ft | 266 kts | 252° |
| 2026-05-07 19:57 | 41.49160 | 1.25727 | 8470 ft | 266 kts | 252° |
| 2026-05-07 19:58 | 41.48628 | 1.23368 | 8343 ft | 265 kts | 253° |
| 2026-05-07 19:58 | 41.48096 | 1.21015 | 8207 ft | 265 kts | 252° |
| 2026-05-07 19:58 | 41.47568 | 1.18682 | 8077 ft | 265 kts | 252° |
| 2026-05-07 19:58 | 41.47036 | 1.16338 | 7961 ft | 266 kts | 252° |
| 2026-05-07 19:59 | 41.46501 | 1.13983 | 7829 ft | 265 kts | 252° |
| 2026-05-07 19:59 | 41.45969 | 1.11642 | 7705 ft | 263 kts | 252° |
| 2026-05-07 19:59 | 41.45437 | 1.09312 | 7580 ft | 262 kts | 252° |
| 2026-05-07 19:59 | 41.44906 | 1.06986 | 7451 ft | 262 kts | 252° |
| 2026-05-07 20:00 | 41.44377 | 1.04673 | 7333 ft | 262 kts | 252° |
| 2026-05-07 20:00 | 41.43846 | 1.02358 | 7207 ft | 261 kts | 252° |
| 2026-05-07 20:00 | 41.43314 | 1.00040 | 7083 ft | 262 kts | 252° |
| 2026-05-07 20:00 | 41.42783 | 0.97723 | 6965 ft | 261 kts | 252° |
| 2026-05-07 20:01 | 41.42254 | 0.95416 | 6836 ft | 260 kts | 252° |
| 2026-05-07 20:01 | 41.41728 | 0.93129 | 6721 ft | 258 kts | 252° |
| 2026-05-07 20:01 | 41.41203 | 0.90847 | 6593 ft | 257 kts | 252° |
| 2026-05-07 20:01 | 41.40677 | 0.88559 | 6471 ft | 258 kts | 252° |
| 2026-05-07 20:02 | 41.40152 | 0.86283 | 6348 ft | 257 kts | 252° |
| 2026-05-07 20:02 | 41.39592 | 0.84026 | 6221 ft | 257 kts | 246° |
| 2026-05-07 20:02 | 41.38554 | 0.82136 | 6074 ft | 254 kts | 217° |
| 2026-05-07 20:02 | 41.36996 | 0.81084 | 5956 ft | 252 kts | 196° |
| 2026-05-07 20:03 | 41.35311 | 0.80473 | 5837 ft | 251 kts | 194° |
| 2026-05-07 20:03 | 41.33627 | 0.79887 | 5715 ft | 248 kts | 194° |
| 2026-05-07 20:03 | 41.31968 | 0.79286 | 5596 ft | 246 kts | 194° |
| 2026-05-07 20:03 | 41.30340 | 0.78679 | 5531 ft | 246 kts | 195° |
| 2026-05-07 20:04 | 41.28675 | 0.78047 | 5573 ft | 246 kts | 194° |
| 2026-05-07 20:04 | 41.27031 | 0.77416 | 5545 ft | 246 kts | 195° |
| 2026-05-07 20:04 | 41.25388 | 0.76776 | 5570 ft | 246 kts | 195° |
| 2026-05-07 20:04 | 41.23744 | 0.76136 | 5519 ft | 245 kts | 195° |
| 2026-05-07 20:05 | 41.22083 | 0.75629 | 5432 ft | 243 kts | 189° |
| 2026-05-07 20:05 | 41.20414 | 0.75241 | 5317 ft | 244 kts | 189° |
| 2026-05-07 20:05 | 41.18774 | 0.74865 | 5198 ft | 241 kts | 188° |
| 2026-05-07 20:05 | 41.17113 | 0.74493 | 5081 ft | 242 kts | 186° |
| 2026-05-07 20:06 | 41.15443 | 0.74421 | 4984 ft | 239 kts | 176° |
| 2026-05-07 20:06 | 41.13788 | 0.74521 | 4881 ft | 237 kts | 176° |
| 2026-05-07 20:06 | 41.12143 | 0.74625 | 4777 ft | 232 kts | 176° |
| 2026-05-07 20:06 | 41.10554 | 0.74722 | 4663 ft | 228 kts | 176° |
| 2026-05-07 20:07 | 41.08998 | 0.75083 | 4555 ft | 228 kts | 159° |
| 2026-05-07 20:07 | 41.07563 | 0.75965 | 4459 ft | 227 kts | 153° |
| 2026-05-07 20:07 | 41.06159 | 0.76925 | 4353 ft | 227 kts | 153° |
| 2026-05-07 20:07 | 41.04760 | 0.77900 | 4253 ft | 227 kts | 148° |
| 2026-05-07 20:08 | 41.03583 | 0.79272 | 4146 ft | 227 kts | 125° |
| 2026-05-07 20:08 | 41.02974 | 0.81189 | 4085 ft | 228 kts | 99° |
| 2026-05-07 20:08 | 41.03071 | 0.83282 | 4081 ft | 232 kts | 74° |
| 2026-05-07 20:08 | 41.03733 | 0.85231 | 4086 ft | 233 kts | 63° |
| 2026-05-07 20:09 | 41.04507 | 0.87117 | 4044 ft | 233 kts | 63° |
| 2026-05-07 20:09 | 41.05263 | 0.89009 | 3998 ft | 233 kts | 64° |
| 2026-05-07 20:09 | 41.05999 | 0.90900 | 3936 ft | 227 kts | 65° |
| 2026-05-07 20:10 | 41.07398 | 0.94594 | 3223 ft | 224 kts | 65° |
| 2026-05-07 20:10 | 41.08085 | 0.96429 | 2881 ft | 219 kts | 65° |
| 2026-05-07 20:10 | 41.08749 | 0.98205 | 2522 ft | 210 kts | 65° |
| 2026-05-07 20:10 | 41.09385 | 0.99906 | 2132 ft | 202 kts | 65° |
| 2026-05-07 20:11 | 41.09983 | 1.01513 | 1850 ft | 189 kts | 65° |
| 2026-05-07 20:11 | 41.10532 | 1.02987 | 1821 ft | 171 kts | 65° |
| 2026-05-07 20:11 | 41.11055 | 1.04402 | 1882 ft | 171 kts | 65° |
| 2026-05-07 20:11 | 41.11532 | 1.05689 | 1878 ft | 141 kts | 65° |
| 2026-05-07 20:12 | 41.11877 | 1.06881 | 1708 ft | 138 kts | 71° |
| 2026-05-07 20:12 | 41.12217 | 1.08068 | 1492 ft | 137 kts | 70° |
| 2026-05-07 20:12 | 41.12557 | 1.09252 | 1309 ft | 137 kts | 70° |
| 2026-05-07 20:12 | 41.12897 | 1.10435 | 1132 ft | 138 kts | 68° |
| 2026-05-07 20:13 | 41.13249 | 1.11623 | 957 ft | 138 kts | 68° |
| 2026-05-07 20:13 | 41.13600 | 1.12807 | 761 ft | 137 kts | 68° |
| 2026-05-07 20:13 | 41.13949 | 1.13982 | 592 ft | 137 kts | 68° |
| 2026-05-07 20:13 | 41.14290 | 1.15162 | 398 ft | 136 kts | 69° |
| 2026-05-07 20:14 | 41.14627 | 1.16327 | 259 ft | 131 kts | 70° |
| 2026-05-07 20:14 | 41.14914 | 1.17296 | 245 ft | 79 kts | 70° |
| 2026-05-07 20:14 | 41.15008 | 1.17633 | 248 ft | 17 kts | 69° |
| 2026-05-07 20:14 | 41.15052 | 1.17787 | 249 ft | 19 kts | 69° |
| 2026-05-07 20:15 | 41.15100 | 1.17953 | 249 ft | 20 kts | 68° |
| 2026-05-07 20:15 | 41.15152 | 1.18130 | 248 ft | 21 kts | 69° |
| 2026-05-07 20:15 | 41.15197 | 1.18269 | 248 ft | 14 kts | 50° |
| 2026-05-07 20:15 | 41.15263 | 1.18275 | 247 ft | 11 kts | 335° |
| 2026-05-07 20:16 | 41.15336 | 1.18231 | 247 ft | 11 kts | 311° |
| 2026-05-07 20:16 | 41.15328 | 1.18122 | 247 ft | 13 kts | 248° |
| 2026-05-07 20:16 | 41.15292 | 1.18003 | 247 ft | 15 kts | 249° |
| 2026-05-07 20:16 | 41.15253 | 1.17871 | 247 ft | 16 kts | 249° |
| 2026-05-07 20:17 | 41.15213 | 1.17729 | 247 ft | 17 kts | 249° |
| 2026-05-07 20:17 | 41.15173 | 1.17588 | 247 ft | 16 kts | 249° |
| 2026-05-07 20:17 | 41.15129 | 1.17442 | 247 ft | 18 kts | 249° |
| 2026-05-07 20:17 | 41.15083 | 1.17285 | 247 ft | 19 kts | 249° |
| 2026-05-07 20:18 | 41.15037 | 1.17128 | 246 ft | 19 kts | 249° |
| 2026-05-07 20:18 | 41.14990 | 1.16967 | 246 ft | 19 kts | 249° |
| 2026-05-07 20:18 | 41.14941 | 1.16799 | 246 ft | 20 kts | 249° |
| 2026-05-07 20:18 | 41.14889 | 1.16620 | 247 ft | 21 kts | 249° |
| 2026-05-07 20:19 | 41.14842 | 1.16462 | 247 ft | 11 kts | 249° |
| 2026-05-07 20:19 | 41.14813 | 1.16362 | 247 ft | 13 kts | 249° |
| 2026-05-07 20:19 | 41.14778 | 1.16244 | 247 ft | 15 kts | 249° |
| 2026-05-07 20:19 | 41.14739 | 1.16111 | 246 ft | 16 kts | 249° |
| 2026-05-07 20:20 | 41.14696 | 1.15965 | 247 ft | 18 kts | 249° |
| 2026-05-07 20:20 | 41.14656 | 1.15829 | 246 ft | 8 kts | 248° |
| 2026-05-07 20:20 | 41.14665 | 1.15783 | 247 ft | 5 kts | 327° |
| 2026-05-07 20:20 | 41.14699 | 1.15763 | 247 ft | 5 kts | 339° |
| 2026-05-07 20:21 | 41.14710 | 1.15757 | 247 ft | 0 kts | 339° |
| 2026-05-07 20:21 | 41.14718 | 1.15753 | 247 ft | 0 kts | 339° |
| 2026-05-07 20:33 | 41.13331 | 1.11901 | 914 ft | 138 kts | 68° |
| 2026-05-07 20:33 | 41.13682 | 1.13080 | 727 ft | 137 kts | 68° |
| 2026-05-07 20:34 | 41.14027 | 1.14245 | 554 ft | 137 kts | 69° |
| 2026-05-07 20:34 | 41.14367 | 1.15424 | 358 ft | 136 kts | 69° |
| 2026-05-07 20:34 | 41.14700 | 1.16575 | 256 ft | 126 kts | 69° |
| 2026-05-07 20:34 | 41.14950 | 1.17431 | 245 ft | 59 kts | 70° |
| 2026-05-07 20:35 | 41.15018 | 1.17666 | 248 ft | 17 kts | 69° |
| 2026-05-07 20:35 | 41.15062 | 1.17823 | 249 ft | 19 kts | 69° |
| 2026-05-07 20:35 | 41.14252 | 1.15030 | 417 ft | 137 kts | 69° |
| 2026-05-07 20:35 | 41.14591 | 1.16202 | 259 ft | 134 kts | 70° |
| 2026-05-07 20:36 | 41.14889 | 1.17216 | 246 ft | 88 kts | 67° |
| 2026-05-07 20:36 | 41.15003 | 1.17617 | 249 ft | 17 kts | 69° |
| 2026-05-07 20:36 | 41.13400 | 1.12134 | 869 ft | 2 kts | 68° |
| 2026-05-07 20:36 | 41.13767 | 1.13367 | 691 ft | 137 kts | 68° |
| 2026-05-07 20:37 | 41.14110 | 1.14528 | 515 ft | 137 kts | 69° |
| 2026-05-07 20:37 | 41.14449 | 1.15706 | 311 ft | 136 kts | 70° |
| 2026-05-07 20:37 | 41.14775 | 1.16831 | 248 ft | 119 kts | 69° |
| 2026-05-07 20:37 | 41.14979 | 1.17533 | 248 ft | 38 kts | 69° |
| 2026-05-07 20:38 | 41.14386 | 1.15489 | 349 ft | 136 kts | 69° |
| 2026-05-07 20:38 | 41.14717 | 1.16634 | 254 ft | 125 kts | 69° |
| 2026-05-07 20:38 | 41.14957 | 1.17458 | 246 ft | 55 kts | 69° |
| 2026-05-07 20:38 | 41.15020 | 1.17675 | 249 ft | 17 kts | 69° |
| 2026-05-07 20:39 | 41.15065 | 1.17832 | 250 ft | 19 kts | 69° |
| 2026-05-07 20:39 | 41.14575 | 1.16145 | 260 ft | 135 kts | 70° |
| 2026-05-07 20:39 | 41.14878 | 1.17182 | 246 ft | 92 kts | 66° |
| 2026-05-07 20:39 | 41.15002 | 1.17610 | 249 ft | 17 kts | 69° |
| 2026-05-07 20:40 | 41.14522 | 1.15962 | 272 ft | 135 kts | 70° |
| 2026-05-07 20:40 | 41.14748 | 1.16738 | 249 ft | 122 kts | 69° |
| 2026-05-07 20:40 | 41.14970 | 1.17501 | 247 ft | 46 kts | 69° |